Friday, February 23, 2018, 7:17 AM EST
Back to Local

KSBY, Salisbury-wicomico Cty Reg

Location: Salisbury, MD, United States Lat: 38.333
Local Time: 7:17 AM EST (12:17 GMT) Lon: -75.5
Time Zone: US/Eastern Elev: 52 ft

Show me the last for .
Show Decoded

2018-02-23 06:54 METAR KSBY 231154Z 06009KT 4SM BR OVC005 06/05 A3054 RMK AO2 SLP344 60001 70005
                 T00560050 10056 20050 56005 =
2018-02-23 05:54 METAR KSBY 231054Z 06012KT 3SM BR OVC005 06/05 A3054 RMK AO2 SLP345 T00560050 =
2018-02-23 04:54 METAR KSBY 230954Z AUTO 06009KT 4SM BR OVC006 06/05 A3055 RMK AO2 SLP347
                 T00560050 =
2018-02-23 03:54 METAR KSBY 230854Z AUTO 05009KT 6SM BR OVC007 05/05 A3056 RMK AO2 RAE05 SLP349
                 P0000 60001 T00500050 50000 =
2018-02-23 02:54 METAR KSBY 230754Z AUTO 06010KT 4SM -RA BR OVC007 06/05 A3056 RMK AO2 RAB51
                 SLP350 P0001 T00560050 =
2018-02-23 01:54 METAR KSBY 230654Z AUTO 06012KT 5SM BR OVC008 06/05 A3056 RMK AO2 SLP349
                 T00560050 =
2018-02-23 00:54 METAR KSBY 230554Z AUTO 06013KT 10SM OVC007 06/04 A3056 RMK AO2 SLP349 60004
                 T00560044 10072 20050 50001 =
2018-02-22 23:54 METAR KSBY 230454Z AUTO 06010KT 10SM OVC007 05/04 A3057 RMK AO2 RAB18E41 SLP354
                 P0000 T00500044 401830050 =
2018-02-22 22:54 METAR KSBY 230354Z AUTO 04010G18KT 10SM OVC007 05/04 A3057 RMK AO2 RAE11 SLP355
                 P0001 T00500044 =
2018-02-22 21:54 METAR KSBY 230254Z 07011KT 5SM -RA BR OVC007 05/04 A3055 RMK AO2 RAB0157 CIG
                 006V010 SLP348 P0002 60003 T00500044 51007 =
2018-02-22 20:54 METAR KSBY 230154Z COR 07013KT 10SM OVC008 05/04 A3055 =
2018-02-22 19:54 METAR KSBY 230054Z 05019G25KT 4SM -RA BR OVC008 06/05 A3055 RMK AO2 RAB08E21B51
                 CIG 006V011 SLP346 P0001 T00560050 =
2018-02-22 18:54 METAR KSBY 222354Z 03016G24KT 7SM OVC007 07/06 A3053 RMK AO2 PK WND 04026/2314
                 SLP342 T00720061 10100 20072 51036 =
2018-02-22 17:54 METAR KSBY 222254Z 04016KT 10SM OVC006 07/06 A3050 RMK AO2 SLP331 T00720061 =
2018-02-22 16:54 METAR KSBY 222154Z 04009KT 7SM OVC007 08/07 A3047 RMK AO2 SLP321 T00780067 =
2018-02-22 15:54 METAR KSBY 222054Z 06011KT 5SM BR OVC008 08/07 A3043 RMK AO2 SLP306 T00830067
                 56000 =
2018-02-22 15:50 METAR KSBY 222050Z 05011KT 6SM BR OVC008 08/07 A3043 RMK AO2 =
2018-02-22 15:01 METAR KSBY 222001Z 07008KT 6SM BR OVC010 09/07 A3042 RMK AO2 T00890072 =
2018-02-22 14:54 METAR KSBY 221954Z 07010KT 4SM BR OVC007 09/07 A3042 RMK AO2 SLP302 T00890072 =
2018-02-22 14:39 METAR KSBY 221939Z 06010KT 4SM BR OVC007 09/07 A3042 RMK AO2 T00890072 =
2018-02-22 13:54 METAR KSBY 221854Z 06012KT 7SM OVC011 09/07 A3043 RMK AO2 SLP306 T00940072 =
2018-02-22 12:54 METAR KSBY 221754Z 06010KT 10SM OVC010 09/07 A3045 RMK AO2 SLP314 60000
                 T00940072 10139 20094 58013 =
2018-02-22 11:54 METAR KSBY 221654Z 07008KT 10SM OVC014 11/08 A3048 RMK AO2 RAE1556 SLP324 P0000
                 T01060078 =
2018-02-22 11:23 METAR KSBY 221623Z 05012KT 10SM OVC014 11/08 A3049 RMK AO2 RAE1556 P0000
                 T01060078 =
2018-02-22 10:54 METAR KSBY 221554Z 07009KT 10SM -RA OVC017 11/08 A3049 RMK AO2 RAB32 SLP327
                 P0000 T01060078 =
2018-02-22 09:54 METAR KSBY 221454Z 07013KT 10SM OVC018 12/06 A3049 RMK AO2 SLP327 T01170061
                 53015 =
2018-02-22 08:54 METAR KSBY 221354Z 08015G19KT 10SM OVC018 12/06 A3048 RMK AO2 SLP322 T01220061 =
2018-02-22 07:54 METAR KSBY 221254Z 07014G21KT 10SM OVC019 14/08 A3046 RMK AO2 SLP316 T01390083 =

Support USWX by starting your Amazon purchase here.